sensor_id;sensor_type;location;lat;lon;timestamp;P1;durP1;ratioP1;P2;durP2;ratioP2
21084;SDS011;34247;50.064;19.970;2022-09-29T00:00:09;1.35;;;1.05;;
21084;SDS011;34247;50.064;19.970;2022-09-29T00:01:15;1.17;;;1.08;;
21084;SDS011;34247;50.064;19.970;2022-09-29T00:02:19;0.98;;;0.98;;
21084;SDS011;34247;50.064;19.970;2022-09-29T00:03:23;0.68;;;0.68;;
21084;SDS011;34247;50.064;19.970;2022-09-29T00:04:26;1.48;;;0.88;;
21084;SDS011;34247;50.064;19.970;2022-09-29T00:05:32;1.60;;;1.42;;
21084;SDS011;34247;50.064;19.970;2022-09-29T00:06:41;0.85;;;0.85;;
21084;SDS011;34247;50.064;19.970;2022-09-29T00:07:47;1.15;;;1.00;;
21084;SDS011;34247;50.064;19.970;2022-09-29T00:08:51;0.77;;;0.77;;
21084;SDS011;34247;50.064;19.970;2022-09-29T00:09:55;1.65;;;0.75;;
21084;SDS011;34247;50.064;19.970;2022-09-29T00:10:58;1.33;;;1.20;;
21084;SDS011;34247;50.064;19.970;2022-09-29T00:12:03;1.08;;;0.98;;
21084;SDS011;34247;50.064;19.970;2022-09-29T00:13:09;1.88;;;1.25;;
21084;SDS011;34247;50.064;19.970;2022-09-29T00:14:17;1.05;;;1.02;;
21084;SDS011;34247;50.064;19.970;2022-09-29T00:15:21;1.20;;;1.10;;
21084;SDS011;34247;50.064;19.970;2022-09-29T00:16:25;2.58;;;1.30;;
21084;SDS011;34247;50.064;19.970;2022-09-29T00:17:29;1.50;;;1.08;;
21084;SDS011;34247;50.064;19.970;2022-09-29T00:18:33;1.15;;;1.05;;
21084;SDS011;34247;50.064;19.970;2022-09-29T00:19:39;0.95;;;0.90;;
21084;SDS011;34247;50.064;19.970;2022-09-29T00:20:54;1.67;;;1.48;;
21084;SDS011;34247;50.064;19.970;2022-09-29T00:22:12;1.10;;;1.10;;
21084;SDS011;34247;50.064;19.970;2022-09-29T00:23:18;2.58;;;1.48;;
21084;SDS011;34247;50.064;19.970;2022-09-29T00:24:28;1.75;;;1.20;;
21084;SDS011;34247;50.064;19.970;2022-09-29T00:25:34;1.33;;;1.30;;
21084;SDS011;34247;50.064;19.970;2022-09-29T00:26:38;5.10;;;1.35;;
21084;SDS011;34247;50.064;19.970;2022-09-29T00:27:42;1.63;;;1.10;;
21084;SDS011;34247;50.064;19.970;2022-09-29T00:28:48;1.00;;;0.95;;
21084;SDS011;34247;50.064;19.970;2022-09-29T00:29:58;1.20;;;1.20;;
21084;SDS011;34247;50.064;19.970;2022-09-29T00:31:02;3.53;;;1.10;;
21084;SDS011;34247;50.064;19.970;2022-09-29T00:32:12;0.82;;;0.82;;
21084;SDS011;34247;50.064;19.970;2022-09-29T00:33:20;1.30;;;1.20;;
21084;SDS011;34247;50.064;19.970;2022-09-29T00:34:25;1.35;;;1.23;;
21084;SDS011;34247;50.064;19.970;2022-09-29T00:35:31;1.20;;;1.15;;
21084;SDS011;34247;50.064;19.970;2022-09-29T00:36:36;3.70;;;1.23;;
21084;SDS011;34247;50.064;19.970;2022-09-29T00:37:51;1.20;;;1.10;;
21084;SDS011;34247;50.064;19.970;2022-09-29T00:38:58;1.00;;;1.00;;
21084;SDS011;34247;50.064;19.970;2022-09-29T00:40:06;2.78;;;1.48;;
21084;SDS011;34247;50.064;19.970;2022-09-29T00:41:15;1.42;;;1.17;;
21084;SDS011;34247;50.064;19.970;2022-09-29T00:42:22;3.42;;;1.63;;
21084;SDS011;34247;50.064;19.970;2022-09-29T00:45:01;1.25;;;1.10;;
21084;SDS011;34247;50.064;19.970;2022-09-29T00:46:09;1.60;;;1.38;;
21084;SDS011;34247;50.064;19.970;2022-09-29T00:47:15;3.75;;;1.30;;
21084;SDS011;34247;50.064;19.970;2022-09-29T00:48:27;1.95;;;1.48;;
21084;SDS011;34247;50.064;19.970;2022-09-29T01:08:51;2.20;;;1.95;;
21084;SDS011;34247;50.064;19.970;2022-09-29T01:10:10;3.03;;;1.60;;
21084;SDS011;34247;50.064;19.970;2022-09-29T01:11:19;2.70;;;2.28;;
21084;SDS011;34247;50.064;19.970;2022-09-29T01:12:24;2.38;;;2.17;;
21084;SDS011;34247;50.064;19.970;2022-09-29T01:13:29;4.68;;;2.63;;
21084;SDS011;34247;50.064;19.970;2022-09-29T01:14:36;3.72;;;1.80;;
21084;SDS011;34247;50.064;19.970;2022-09-29T01:15:44;3.45;;;2.25;;
21084;SDS011;34247;50.064;19.970;2022-09-29T01:16:49;2.53;;;2.00;;
21084;SDS011;34247;50.064;19.970;2022-09-29T01:17:53;2.55;;;2.00;;
21084;SDS011;34247;50.064;19.970;2022-09-29T01:19:01;4.10;;;2.05;;
21084;SDS011;34247;50.064;19.970;2022-09-29T01:20:19;3.70;;;2.42;;
21084;SDS011;34247;50.064;19.970;2022-09-29T01:24:16;4.95;;;2.65;;
21084;SDS011;34247;50.064;19.970;2022-09-29T01:33:07;2.47;;;2.28;;
21084;SDS011;34247;50.064;19.970;2022-09-29T01:34:38;4.25;;;2.20;;
21084;SDS011;34247;50.064;19.970;2022-09-29T01:40:55;2.92;;;2.28;;
21084;SDS011;34247;50.064;19.970;2022-09-29T01:42:18;2.30;;;1.75;;
21084;SDS011;34247;50.064;19.970;2022-09-29T01:44:49;4.50;;;2.30;;
21084;SDS011;34247;50.064;19.970;2022-09-29T01:46:23;6.68;;;2.30;;
21084;SDS011;34247;50.064;19.970;2022-09-29T01:47:54;5.68;;;2.63;;
21084;SDS011;34247;50.064;19.970;2022-09-29T01:49:07;4.78;;;2.30;;
21084;SDS011;34247;50.064;19.970;2022-09-29T01:50:23;6.57;;;2.38;;
21084;SDS011;34247;50.064;19.970;2022-09-29T01:52:53;3.25;;;2.20;;
21084;SDS011;34247;50.064;19.970;2022-09-29T01:54:27;6.15;;;2.75;;
21084;SDS011;34247;50.064;19.970;2022-09-29T01:55:50;3.72;;;2.67;;
21084;SDS011;34247;50.064;19.970;2022-09-29T01:57:08;4.60;;;2.45;;
21084;SDS011;34247;50.064;19.970;2022-09-29T02:01:19;5.97;;;3.10;;
21084;SDS011;34247;50.064;19.970;2022-09-29T02:02:33;4.25;;;2.45;;
21084;SDS011;34247;50.064;19.970;2022-09-29T02:03:49;6.35;;;2.08;;
21084;SDS011;34247;50.064;19.970;2022-09-29T02:05:09;3.08;;;2.33;;
21084;SDS011;34247;50.064;19.970;2022-09-29T02:06:36;5.97;;;2.45;;
21084;SDS011;34247;50.064;19.970;2022-09-29T02:07:54;3.85;;;2.05;;
21084;SDS011;34247;50.064;19.970;2022-09-29T02:09:11;8.10;;;3.05;;
21084;SDS011;34247;50.064;19.970;2022-09-29T02:10:36;5.35;;;2.67;;
21084;SDS011;34247;50.064;19.970;2022-09-29T02:11:50;8.70;;;2.80;;
21084;SDS011;34247;50.064;19.970;2022-09-29T02:12:58;4.80;;;2.65;;
21084;SDS011;34247;50.064;19.970;2022-09-29T02:14:13;3.70;;;2.25;;
21084;SDS011;34247;50.064;19.970;2022-09-29T02:15:34;4.18;;;3.10;;
21084;SDS011;34247;50.064;19.970;2022-09-29T02:16:47;3.10;;;2.22;;
21084;SDS011;34247;50.064;19.970;2022-09-29T02:18:06;4.43;;;2.50;;
21084;SDS011;34247;50.064;19.970;2022-09-29T02:19:26;3.78;;;2.65;;
21084;SDS011;34247;50.064;19.970;2022-09-29T02:20:35;4.93;;;2.40;;
21084;SDS011;34247;50.064;19.970;2022-09-29T02:21:39;3.78;;;2.53;;
21084;SDS011;34247;50.064;19.970;2022-09-29T02:22:44;5.13;;;2.40;;
21084;SDS011;34247;50.064;19.970;2022-09-29T02:23:51;4.32;;;2.33;;
21084;SDS011;34247;50.064;19.970;2022-09-29T02:25:00;2.63;;;2.40;;
21084;SDS011;34247;50.064;19.970;2022-09-29T02:26:05;2.97;;;2.40;;
21084;SDS011;34247;50.064;19.970;2022-09-29T02:27:09;5.03;;;3.08;;
21084;SDS011;34247;50.064;19.970;2022-09-29T02:28:24;4.80;;;2.90;;
21084;SDS011;34247;50.064;19.970;2022-09-29T02:29:30;4.97;;;2.35;;
21084;SDS011;34247;50.064;19.970;2022-09-29T02:30:38;4.70;;;3.13;;
21084;SDS011;34247;50.064;19.970;2022-09-29T02:31:44;5.07;;;2.70;;
21084;SDS011;34247;50.064;19.970;2022-09-29T02:32:49;6.03;;;2.83;;
21084;SDS011;34247;50.064;19.970;2022-09-29T02:33:53;6.25;;;3.13;;
21084;SDS011;34247;50.064;19.970;2022-09-29T02:34:57;8.80;;;2.40;;
21084;SDS011;34247;50.064;19.970;2022-09-29T02:39:30;7.00;;;3.05;;
21084;SDS011;34247;50.064;19.970;2022-09-29T02:40:58;4.70;;;2.67;;
21084;SDS011;34247;50.064;19.970;2022-09-29T02:48:12;9.35;;;2.35;;
21084;SDS011;34247;50.064;19.970;2022-09-29T02:51:16;4.20;;;2.42;;
21084;SDS011;34247;50.064;19.970;2022-09-29T02:52:45;3.15;;;2.60;;
21084;SDS011;34247;50.064;19.970;2022-09-29T02:56:28;5.57;;;2.85;;
21084;SDS011;34247;50.064;19.970;2022-09-29T02:57:55;4.93;;;2.75;;
21084;SDS011;34247;50.064;19.970;2022-09-29T02:59:20;4.40;;;2.30;;
21084;SDS011;34247;50.064;19.970;2022-09-29T03:00:33;3.10;;;2.22;;
21084;SDS011;34247;50.064;19.970;2022-09-29T03:01:45;4.75;;;2.90;;
21084;SDS011;34247;50.064;19.970;2022-09-29T03:02:53;2.80;;;2.60;;
21084;SDS011;34247;50.064;19.970;2022-09-29T03:03:56;8.68;;;2.80;;
21084;SDS011;34247;50.064;19.970;2022-09-29T03:05:07;3.55;;;2.53;;
21084;SDS011;34247;50.064;19.970;2022-09-29T03:06:34;4.97;;;3.05;;
21084;SDS011;34247;50.064;19.970;2022-09-29T03:07:38;12.30;;;2.80;;
21084;SDS011;34247;50.064;19.970;2022-09-29T03:08:42;7.45;;;2.58;;
21084;SDS011;34247;50.064;19.970;2022-09-29T03:09:45;7.38;;;2.72;;
21084;SDS011;34247;50.064;19.970;2022-09-29T03:10:49;2.85;;;2.08;;
21084;SDS011;34247;50.064;19.970;2022-09-29T03:11:55;6.07;;;2.15;;
21084;SDS011;34247;50.064;19.970;2022-09-29T03:12:58;4.55;;;2.70;;
21084;SDS011;34247;50.064;19.970;2022-09-29T03:14:03;3.38;;;2.42;;
21084;SDS011;34247;50.064;19.970;2022-09-29T03:15:08;6.72;;;2.60;;
21084;SDS011;34247;50.064;19.970;2022-09-29T03:16:14;7.70;;;3.22;;
21084;SDS011;34247;50.064;19.970;2022-09-29T03:17:18;3.10;;;2.70;;
21084;SDS011;34247;50.064;19.970;2022-09-29T03:18:22;3.95;;;2.63;;
21084;SDS011;34247;50.064;19.970;2022-09-29T03:19:26;2.50;;;2.28;;
21084;SDS011;34247;50.064;19.970;2022-09-29T03:20:29;5.35;;;2.60;;
21084;SDS011;34247;50.064;19.970;2022-09-29T03:21:34;5.57;;;2.75;;
21084;SDS011;34247;50.064;19.970;2022-09-29T03:22:37;5.43;;;3.25;;
21084;SDS011;34247;50.064;19.970;2022-09-29T03:23:41;3.13;;;2.33;;
21084;SDS011;34247;50.064;19.970;2022-09-29T03:24:47;8.32;;;3.25;;
21084;SDS011;34247;50.064;19.970;2022-09-29T03:25:51;4.47;;;3.22;;
21084;SDS011;34247;50.064;19.970;2022-09-29T03:26:54;4.25;;;2.58;;
21084;SDS011;34247;50.064;19.970;2022-09-29T03:27:58;7.68;;;2.53;;
21084;SDS011;34247;50.064;19.970;2022-09-29T03:29:02;3.67;;;2.20;;
21084;SDS011;34247;50.064;19.970;2022-09-29T03:30:06;4.18;;;2.88;;
21084;SDS011;34247;50.064;19.970;2022-09-29T03:31:10;2.95;;;2.17;;
21084;SDS011;34247;50.064;19.970;2022-09-29T03:32:14;5.47;;;2.45;;
21084;SDS011;34247;50.064;19.970;2022-09-29T03:33:19;2.45;;;2.15;;
21084;SDS011;34247;50.064;19.970;2022-09-29T03:34:23;12.60;;;2.60;;
21084;SDS011;34247;50.064;19.970;2022-09-29T03:35:27;2.92;;;2.05;;
21084;SDS011;34247;50.064;19.970;2022-09-29T03:36:32;5.07;;;2.63;;
21084;SDS011;34247;50.064;19.970;2022-09-29T03:37:36;7.32;;;2.00;;
21084;SDS011;34247;50.064;19.970;2022-09-29T03:38:40;2.75;;;2.15;;
21084;SDS011;34247;50.064;19.970;2022-09-29T03:39:46;3.20;;;2.88;;
21084;SDS011;34247;50.064;19.970;2022-09-29T03:40:49;5.63;;;2.13;;
21084;SDS011;34247;50.064;19.970;2022-09-29T03:41:53;3.83;;;2.30;;
21084;SDS011;34247;50.064;19.970;2022-09-29T03:42:57;4.18;;;2.58;;
21084;SDS011;34247;50.064;19.970;2022-09-29T03:44:01;3.85;;;2.30;;
21084;SDS011;34247;50.064;19.970;2022-09-29T03:45:07;3.15;;;2.47;;
21084;SDS011;34247;50.064;19.970;2022-09-29T03:46:11;4.57;;;2.70;;
21084;SDS011;34247;50.064;19.970;2022-09-29T03:47:15;2.25;;;1.73;;
21084;SDS011;34247;50.064;19.970;2022-09-29T03:48:44;2.92;;;2.05;;
21084;SDS011;34247;50.064;19.970;2022-09-29T03:49:47;2.95;;;2.55;;
21084;SDS011;34247;50.064;19.970;2022-09-29T03:50:51;6.45;;;2.65;;
21084;SDS011;34247;50.064;19.970;2022-09-29T03:51:56;2.40;;;1.77;;
21084;SDS011;34247;50.064;19.970;2022-09-29T03:53:02;3.80;;;2.05;;
21084;SDS011;34247;50.064;19.970;2022-09-29T03:54:06;2.42;;;1.98;;
21084;SDS011;34247;50.064;19.970;2022-09-29T03:55:10;4.68;;;2.97;;
21084;SDS011;34247;50.064;19.970;2022-09-29T03:56:14;3.15;;;1.98;;
21084;SDS011;34247;50.064;19.970;2022-09-29T03:57:18;4.20;;;2.00;;
21084;SDS011;34247;50.064;19.970;2022-09-29T03:58:22;7.05;;;2.70;;
21084;SDS011;34247;50.064;19.970;2022-09-29T03:59:25;4.88;;;2.22;;
21084;SDS011;34247;50.064;19.970;2022-09-29T04:00:29;6.50;;;2.70;;
21084;SDS011;34247;50.064;19.970;2022-09-29T04:01:33;3.28;;;2.17;;
21084;SDS011;34247;50.064;19.970;2022-09-29T04:02:38;5.00;;;2.30;;
21084;SDS011;34247;50.064;19.970;2022-09-29T04:03:41;6.90;;;2.88;;
21084;SDS011;34247;50.064;19.970;2022-09-29T04:04:45;4.68;;;2.90;;
21084;SDS011;34247;50.064;19.970;2022-09-29T04:05:49;3.28;;;2.17;;
21084;SDS011;34247;50.064;19.970;2022-09-29T04:06:53;4.47;;;2.50;;
21084;SDS011;34247;50.064;19.970;2022-09-29T04:07:56;3.75;;;2.45;;
21084;SDS011;34247;50.064;19.970;2022-09-29T04:09:00;5.55;;;2.65;;
21084;SDS011;34247;50.064;19.970;2022-09-29T04:10:05;5.45;;;2.97;;
21084;SDS011;34247;50.064;19.970;2022-09-29T04:11:09;6.50;;;2.25;;
21084;SDS011;34247;50.064;19.970;2022-09-29T04:12:13;2.92;;;2.40;;
21084;SDS011;34247;50.064;19.970;2022-09-29T04:13:17;4.30;;;2.58;;
21084;SDS011;34247;50.064;19.970;2022-09-29T04:14:21;4.30;;;2.95;;
21084;SDS011;34247;50.064;19.970;2022-09-29T04:15:25;4.22;;;2.50;;
21084;SDS011;34247;50.064;19.970;2022-09-29T04:16:29;5.40;;;2.58;;
21084;SDS011;34247;50.064;19.970;2022-09-29T04:17:33;6.75;;;3.08;;
21084;SDS011;34247;50.064;19.970;2022-09-29T04:18:36;4.35;;;2.10;;
21084;SDS011;34247;50.064;19.970;2022-09-29T04:19:40;4.93;;;2.58;;
21084;SDS011;34247;50.064;19.970;2022-09-29T04:20:43;4.90;;;3.25;;
21084;SDS011;34247;50.064;19.970;2022-09-29T04:21:47;3.33;;;1.90;;
21084;SDS011;34247;50.064;19.970;2022-09-29T04:22:51;2.95;;;2.65;;
21084;SDS011;34247;50.064;19.970;2022-09-29T04:23:55;4.30;;;2.90;;
21084;SDS011;34247;50.064;19.970;2022-09-29T04:24:59;3.53;;;2.50;;
21084;SDS011;34247;50.064;19.970;2022-09-29T04:26:03;5.43;;;2.88;;
21084;SDS011;34247;50.064;19.970;2022-09-29T04:27:07;2.85;;;2.33;;
21084;SDS011;34247;50.064;19.970;2022-09-29T04:28:11;6.57;;;2.08;;
21084;SDS011;34247;50.064;19.970;2022-09-29T04:29:15;3.15;;;2.58;;
21084;SDS011;34247;50.064;19.970;2022-09-29T04:30:19;4.72;;;2.95;;
21084;SDS011;34247;50.064;19.970;2022-09-29T04:31:23;4.25;;;2.92;;
21084;SDS011;34247;50.064;19.970;2022-09-29T04:32:27;6.88;;;2.47;;
21084;SDS011;34247;50.064;19.970;2022-09-29T04:33:31;3.60;;;2.13;;
21084;SDS011;34247;50.064;19.970;2022-09-29T04:34:35;3.90;;;2.58;;
21084;SDS011;34247;50.064;19.970;2022-09-29T04:35:38;6.82;;;2.55;;
21084;SDS011;34247;50.064;19.970;2022-09-29T04:36:42;5.93;;;2.40;;
21084;SDS011;34247;50.064;19.970;2022-09-29T04:37:46;3.50;;;2.45;;
21084;SDS011;34247;50.064;19.970;2022-09-29T04:38:49;5.07;;;3.08;;
21084;SDS011;34247;50.064;19.970;2022-09-29T04:39:53;5.10;;;2.25;;
21084;SDS011;34247;50.064;19.970;2022-09-29T04:40:57;6.07;;;3.33;;
21084;SDS011;34247;50.064;19.970;2022-09-29T04:42:00;3.67;;;2.30;;
21084;SDS011;34247;50.064;19.970;2022-09-29T04:43:04;3.08;;;2.13;;
21084;SDS011;34247;50.064;19.970;2022-09-29T04:44:09;4.47;;;2.85;;
21084;SDS011;34247;50.064;19.970;2022-09-29T04:45:13;4.03;;;2.13;;
21084;SDS011;34247;50.064;19.970;2022-09-29T04:46:17;4.93;;;2.95;;
21084;SDS011;34247;50.064;19.970;2022-09-29T04:47:20;6.15;;;3.40;;
21084;SDS011;34247;50.064;19.970;2022-09-29T04:48:24;3.75;;;2.60;;
21084;SDS011;34247;50.064;19.970;2022-09-29T04:49:28;2.60;;;2.15;;
21084;SDS011;34247;50.064;19.970;2022-09-29T04:50:33;4.82;;;2.92;;
21084;SDS011;34247;50.064;19.970;2022-09-29T04:51:37;4.53;;;2.85;;
21084;SDS011;34247;50.064;19.970;2022-09-29T04:52:43;3.35;;;2.40;;
21084;SDS011;34247;50.064;19.970;2022-09-29T04:53:47;6.30;;;2.50;;
21084;SDS011;34247;50.064;19.970;2022-09-29T04:54:51;4.03;;;2.90;;
21084;SDS011;34247;50.064;19.970;2022-09-29T04:55:54;4.20;;;2.90;;
21084;SDS011;34247;50.064;19.970;2022-09-29T04:56:58;5.97;;;2.30;;
21084;SDS011;34247;50.064;19.970;2022-09-29T04:58:02;6.03;;;2.85;;
21084;SDS011;34247;50.064;19.970;2022-09-29T04:59:07;4.22;;;2.45;;
21084;SDS011;34247;50.064;19.970;2022-09-29T05:00:12;6.20;;;2.35;;
21084;SDS011;34247;50.064;19.970;2022-09-29T05:01:17;5.15;;;2.85;;
21084;SDS011;34247;50.064;19.970;2022-09-29T05:02:21;3.53;;;2.28;;
21084;SDS011;34247;50.064;19.970;2022-09-29T05:03:24;5.63;;;3.10;;
21084;SDS011;34247;50.064;19.970;2022-09-29T05:04:28;5.38;;;2.58;;
21084;SDS011;34247;50.064;19.970;2022-09-29T05:05:32;3.10;;;2.65;;
21084;SDS011;34247;50.064;19.970;2022-09-29T05:06:36;3.83;;;2.60;;
21084;SDS011;34247;50.064;19.970;2022-09-29T05:07:41;3.67;;;2.33;;
21084;SDS011;34247;50.064;19.970;2022-09-29T05:08:46;6.47;;;2.63;;
21084;SDS011;34247;50.064;19.970;2022-09-29T05:09:50;3.97;;;2.72;;
21084;SDS011;34247;50.064;19.970;2022-09-29T05:10:54;3.15;;;2.70;;
21084;SDS011;34247;50.064;19.970;2022-09-29T05:11:57;2.55;;;2.13;;
21084;SDS011;34247;50.064;19.970;2022-09-29T05:13:01;3.70;;;2.67;;
21084;SDS011;34247;50.064;19.970;2022-09-29T05:14:05;3.05;;;2.35;;
21084;SDS011;34247;50.064;19.970;2022-09-29T05:15:09;4.97;;;3.00;;
21084;SDS011;34247;50.064;19.970;2022-09-29T05:16:13;3.90;;;2.25;;
21084;SDS011;34247;50.064;19.970;2022-09-29T05:17:19;9.77;;;2.65;;
21084;SDS011;34247;50.064;19.970;2022-09-29T05:18:23;4.43;;;2.67;;
21084;SDS011;34247;50.064;19.970;2022-09-29T05:19:27;4.13;;;2.08;;
21084;SDS011;34247;50.064;19.970;2022-09-29T05:20:33;3.90;;;2.28;;
21084;SDS011;34247;50.064;19.970;2022-09-29T05:21:46;7.55;;;3.10;;
21084;SDS011;34247;50.064;19.970;2022-09-29T05:22:50;3.78;;;2.33;;
21084;SDS011;34247;50.064;19.970;2022-09-29T05:23:54;6.05;;;2.35;;
21084;SDS011;34247;50.064;19.970;2022-09-29T05:24:58;4.70;;;2.42;;
21084;SDS011;34247;50.064;19.970;2022-09-29T05:26:03;2.60;;;2.03;;
21084;SDS011;34247;50.064;19.970;2022-09-29T05:27:10;6.28;;;3.70;;
21084;SDS011;34247;50.064;19.970;2022-09-29T05:28:14;6.45;;;3.40;;
21084;SDS011;34247;50.064;19.970;2022-09-29T05:29:17;4.68;;;2.20;;
21084;SDS011;34247;50.064;19.970;2022-09-29T05:30:21;5.05;;;2.13;;
21084;SDS011;34247;50.064;19.970;2022-09-29T05:31:25;7.22;;;2.35;;
21084;SDS011;34247;50.064;19.970;2022-09-29T05:32:29;4.38;;;2.33;;
21084;SDS011;34247;50.064;19.970;2022-09-29T05:33:33;3.50;;;2.22;;
21084;SDS011;34247;50.064;19.970;2022-09-29T05:34:38;4.30;;;3.03;;
21084;SDS011;34247;50.064;19.970;2022-09-29T05:35:41;3.50;;;2.50;;
21084;SDS011;34247;50.064;19.970;2022-09-29T05:36:45;2.92;;;2.35;;
21084;SDS011;34247;50.064;19.970;2022-09-29T05:37:49;5.05;;;2.63;;
21084;SDS011;34247;50.064;19.970;2022-09-29T05:38:53;4.53;;;2.92;;
21084;SDS011;34247;50.064;19.970;2022-09-29T05:39:57;3.78;;;2.30;;
21084;SDS011;34247;50.064;19.970;2022-09-29T05:41:08;12.75;;;2.53;;
21084;SDS011;34247;50.064;19.970;2022-09-29T05:42:14;3.67;;;2.55;;
21084;SDS011;34247;50.064;19.970;2022-09-29T05:43:19;4.72;;;2.50;;
21084;SDS011;34247;50.064;19.970;2022-09-29T05:44:23;2.63;;;2.00;;
21084;SDS011;34247;50.064;19.970;2022-09-29T05:45:27;3.08;;;2.22;;
21084;SDS011;34247;50.064;19.970;2022-09-29T05:46:33;2.88;;;2.03;;
21084;SDS011;34247;50.064;19.970;2022-09-29T05:47:40;3.58;;;2.58;;
21084;SDS011;34247;50.064;19.970;2022-09-29T05:48:45;8.15;;;4.55;;
21084;SDS011;34247;50.064;19.970;2022-09-29T05:49:50;16.85;;;6.28;;
21084;SDS011;34247;50.064;19.970;2022-09-29T05:50:54;8.32;;;4.30;;
21084;SDS011;34247;50.064;19.970;2022-09-29T05:51:59;5.63;;;3.20;;
21084;SDS011;34247;50.064;19.970;2022-09-29T05:53:02;6.00;;;2.83;;
21084;SDS011;34247;50.064;19.970;2022-09-29T05:54:06;2.88;;;2.58;;
21084;SDS011;34247;50.064;19.970;2022-09-29T05:55:10;2.97;;;2.42;;
21084;SDS011;34247;50.064;19.970;2022-09-29T05:56:16;5.57;;;2.97;;
21084;SDS011;34247;50.064;19.970;2022-09-29T05:57:25;4.50;;;2.35;;
21084;SDS011;34247;50.064;19.970;2022-09-29T05:58:29;1.98;;;1.88;;
21084;SDS011;34247;50.064;19.970;2022-09-29T05:59:33;3.75;;;2.10;;
21084;SDS011;34247;50.064;19.970;2022-09-29T06:00:36;2.25;;;2.05;;
21084;SDS011;34247;50.064;19.970;2022-09-29T06:01:40;2.72;;;2.17;;
21084;SDS011;34247;50.064;19.970;2022-09-29T06:02:44;4.03;;;2.75;;
21084;SDS011;34247;50.064;19.970;2022-09-29T06:03:48;2.55;;;2.13;;
21084;SDS011;34247;50.064;19.970;2022-09-29T06:04:53;4.22;;;2.75;;
21084;SDS011;34247;50.064;19.970;2022-09-29T06:05:56;5.72;;;3.13;;
21084;SDS011;34247;50.064;19.970;2022-09-29T06:07:00;4.50;;;2.40;;
21084;SDS011;34247;50.064;19.970;2022-09-29T06:08:04;2.50;;;2.30;;
21084;SDS011;34247;50.064;19.970;2022-09-29T06:09:10;5.20;;;2.30;;
21084;SDS011;34247;50.064;19.970;2022-09-29T06:10:14;6.18;;;2.83;;
21084;SDS011;34247;50.064;19.970;2022-09-29T06:11:22;5.32;;;2.38;;
21084;SDS011;34247;50.064;19.970;2022-09-29T06:12:32;4.05;;;2.15;;
21084;SDS011;34247;50.064;19.970;2022-09-29T06:13:40;3.53;;;2.78;;
21084;SDS011;34247;50.064;19.970;2022-09-29T06:14:47;2.00;;;1.90;;
21084;SDS011;34247;50.064;19.970;2022-09-29T06:15:51;7.20;;;2.17;;
21084;SDS011;34247;50.064;19.970;2022-09-29T06:16:54;5.50;;;2.28;;
21084;SDS011;34247;50.064;19.970;2022-09-29T06:17:58;5.68;;;2.30;;
21084;SDS011;34247;50.064;19.970;2022-09-29T06:19:03;2.35;;;2.15;;
21084;SDS011;34247;50.064;19.970;2022-09-29T06:20:07;5.43;;;2.47;;
21084;SDS011;34247;50.064;19.970;2022-09-29T06:21:17;6.63;;;2.80;;
21084;SDS011;34247;50.064;19.970;2022-09-29T06:22:57;4.82;;;2.33;;
21084;SDS011;34247;50.064;19.970;2022-09-29T06:24:06;2.50;;;2.08;;
21084;SDS011;34247;50.064;19.970;2022-09-29T07:13:41;3.10;;;2.20;;
21084;SDS011;34247;50.064;19.970;2022-09-29T07:14:46;3.13;;;2.42;;
21084;SDS011;34247;50.064;19.970;2022-09-29T07:15:50;3.65;;;2.50;;
21084;SDS011;34247;50.064;19.970;2022-09-29T07:16:57;3.90;;;2.38;;
21084;SDS011;34247;50.064;19.970;2022-09-29T07:18:03;3.88;;;1.95;;
21084;SDS011;34247;50.064;19.970;2022-09-29T07:19:16;4.47;;;2.35;;
21084;SDS011;34247;50.064;19.970;2022-09-29T07:20:23;3.75;;;2.53;;
21084;SDS011;34247;50.064;19.970;2022-09-29T07:21:31;2.50;;;1.77;;
21084;SDS011;34247;50.064;19.970;2022-09-29T07:22:36;3.78;;;2.20;;
21084;SDS011;34247;50.064;19.970;2022-09-29T07:23:55;2.38;;;2.15;;
21084;SDS011;34247;50.064;19.970;2022-09-29T07:25:05;4.25;;;2.58;;
21084;SDS011;34247;50.064;19.970;2022-09-29T07:26:10;3.00;;;2.28;;
21084;SDS011;34247;50.064;19.970;2022-09-29T07:27:17;3.75;;;2.10;;
21084;SDS011;34247;50.064;19.970;2022-09-29T07:28:26;2.95;;;1.92;;
21084;SDS011;34247;50.064;19.970;2022-09-29T07:29:31;4.20;;;2.20;;
21084;SDS011;34247;50.064;19.970;2022-09-29T07:30:38;5.55;;;2.35;;
21084;SDS011;34247;50.064;19.970;2022-09-29T07:31:43;6.43;;;2.10;;
21084;SDS011;34247;50.064;19.970;2022-09-29T07:32:53;3.58;;;1.95;;
21084;SDS011;34247;50.064;19.970;2022-09-29T07:34:04;3.63;;;2.03;;
21084;SDS011;34247;50.064;19.970;2022-09-29T07:35:08;1.80;;;1.70;;
21084;SDS011;34247;50.064;19.970;2022-09-29T07:36:12;2.83;;;2.10;;
21084;SDS011;34247;50.064;19.970;2022-09-29T07:37:19;4.28;;;1.95;;
21084;SDS011;34247;50.064;19.970;2022-09-29T07:38:23;2.67;;;2.15;;
21084;SDS011;34247;50.064;19.970;2022-09-29T07:39:27;6.07;;;2.28;;
21084;SDS011;34247;50.064;19.970;2022-09-29T07:40:31;2.53;;;2.33;;
21084;SDS011;34247;50.064;19.970;2022-09-29T07:41:35;3.00;;;2.15;;
21084;SDS011;34247;50.064;19.970;2022-09-29T07:42:40;4.15;;;2.53;;
21084;SDS011;34247;50.064;19.970;2022-09-29T07:43:45;2.60;;;2.40;;
21084;SDS011;34247;50.064;19.970;2022-09-29T07:44:50;6.15;;;3.05;;
21084;SDS011;34247;50.064;19.970;2022-09-29T07:45:54;3.38;;;2.78;;
21084;SDS011;34247;50.064;19.970;2022-09-29T07:46:58;4.70;;;2.38;;
21084;SDS011;34247;50.064;19.970;2022-09-29T07:48:03;1.88;;;1.77;;
21084;SDS011;34247;50.064;19.970;2022-09-29T07:49:07;3.13;;;2.28;;
21084;SDS011;34247;50.064;19.970;2022-09-29T07:50:11;3.42;;;1.88;;
21084;SDS011;34247;50.064;19.970;2022-09-29T07:51:22;5.50;;;1.85;;
21084;SDS011;34247;50.064;19.970;2022-09-29T07:52:27;3.28;;;2.00;;
21084;SDS011;34247;50.064;19.970;2022-09-29T07:53:31;2.28;;;2.08;;
21084;SDS011;34247;50.064;19.970;2022-09-29T07:54:36;5.50;;;2.13;;
21084;SDS011;34247;50.064;19.970;2022-09-29T07:55:40;2.95;;;2.42;;
21084;SDS011;34247;50.064;19.970;2022-09-29T07:56:44;7.18;;;2.72;;
21084;SDS011;34247;50.064;19.970;2022-09-29T07:57:48;3.25;;;1.92;;
21084;SDS011;34247;50.064;19.970;2022-09-29T07:58:54;6.80;;;2.47;;
21084;SDS011;34247;50.064;19.970;2022-09-29T07:59:58;3.97;;;1.90;;
21084;SDS011;34247;50.064;19.970;2022-09-29T08:01:04;3.42;;;2.20;;
21084;SDS011;34247;50.064;19.970;2022-09-29T08:02:13;6.15;;;1.77;;
21084;SDS011;34247;50.064;19.970;2022-09-29T08:03:31;2.22;;;1.65;;
21084;SDS011;34247;50.064;19.970;2022-09-29T08:04:38;3.58;;;2.03;;
21084;SDS011;34247;50.064;19.970;2022-09-29T08:05:43;3.13;;;2.15;;
21084;SDS011;34247;50.064;19.970;2022-09-29T08:06:46;2.35;;;1.70;;
21084;SDS011;34247;50.064;19.970;2022-09-29T08:07:50;2.75;;;2.38;;
21084;SDS011;34247;50.064;19.970;2022-09-29T08:08:54;4.43;;;2.20;;
21084;SDS011;34247;50.064;19.970;2022-09-29T08:10:06;2.60;;;1.63;;
21084;SDS011;34247;50.064;19.970;2022-09-29T08:11:19;6.35;;;2.20;;
21084;SDS011;34247;50.064;19.970;2022-09-29T08:12:32;2.60;;;1.65;;
21084;SDS011;34247;50.064;19.970;2022-09-29T08:13:46;2.80;;;2.03;;
21084;SDS011;34247;50.064;19.970;2022-09-29T08:14:52;8.25;;;2.25;;
21084;SDS011;34247;50.064;19.970;2022-09-29T08:15:57;3.35;;;1.90;;
21084;SDS011;34247;50.064;19.970;2022-09-29T08:17:05;2.35;;;1.65;;
21084;SDS011;34247;50.064;19.970;2022-09-29T08:18:09;5.50;;;1.75;;
21084;SDS011;34247;50.064;19.970;2022-09-29T08:19:12;7.55;;;1.90;;
21084;SDS011;34247;50.064;19.970;2022-09-29T08:20:16;5.63;;;1.52;;
21084;SDS011;34247;50.064;19.970;2022-09-29T08:21:21;6.38;;;2.30;;